Time;durP1;ratioP1;P1;durP2;ratioP2;P2;SDS_P1;SDS_P2;PMS_P1;PMS_P2;Temp;Humidity;BMP_temperature;BMP_pressure;BME280_temperature;BME280_humidity;BME280_pressure;Samples;Min_cycle;Max_cycle;Signal;HPM_P1;HPM_P2
2021/07/08 00:00:09;;;;;;;1.40;0.40;;;19.50;94.00;19.30;99862.00;;;;337892;28;83456;-87
2021/07/08 00:00:24;;;;;;;1.20;0.40;;;19.50;94.20;19.40;99858.00;;;;339532;28;88615;-87
2021/07/08 00:00:47;;;;;;;1.05;0.40;;;19.50;94.30;19.20;99868.00;;;;337717;28;83318;-88
2021/07/08 00:00:59;;;;;;;2.15;0.63;;;19.50;94.80;19.30;99864.00;;;;337359;28;89795;-88
2021/07/08 00:01:12;;;;;;;3.03;0.82;;;19.50;95.00;19.40;99858.00;;;;335109;29;83430;-88
2021/07/08 00:01:24;;;;;;;3.80;1.02;;;19.50;95.40;19.40;99850.00;;;;334727;29;89776;-88
2021/07/08 00:01:37;;;;;;;3.15;0.80;;;19.40;95.40;19.30;99859.00;;;;336453;28;83290;-89
2021/07/08 00:01:49;;;;;;;3.35;0.70;;;19.50;95.60;19.30;99863.00;;;;334692;29;90077;-88
2021/07/08 00:02:01;;;;;;;3.40;0.77;;;19.40;95.60;19.20;99863.00;;;;335168;29;82234;-88
2021/07/08 00:02:13;;;;;;;3.38;1.00;;;19.40;95.90;19.40;99867.00;;;;334483;29;90678;-87
2021/07/08 00:02:25;;;;;;;3.50;0.80;;;19.40;95.80;19.30;99866.00;;;;336416;28;82711;-89
2021/07/08 00:02:37;;;;;;;4.28;0.65;;;19.50;95.80;19.00;99861.00;;;;336081;28;89440;-88
2021/07/08 00:02:49;;;;;;;4.20;0.70;;;19.40;95.50;19.00;99869.00;;;;335200;28;83392;-87
2021/07/08 00:03:03;;;;;;;3.30;0.68;;;19.40;95.60;18.80;99863.00;;;;337166;28;89793;-88
2021/07/08 00:03:15;;;;;;;3.30;0.73;;;19.30;95.60;18.90;99862.00;;;;336297;28;84219;-84
2021/07/08 00:03:27;;;;;;;2.53;0.60;;;19.30;95.70;19.00;99872.00;;;;334425;29;89807;-88
2021/07/08 00:03:39;;;;;;;2.72;0.70;;;19.30;96.10;18.90;99858.00;;;;335213;29;82249;-88
2021/07/08 00:03:50;;;;;;;2.20;0.80;;;19.30;96.60;19.10;99870.00;;;;333455;29;88706;-88
2021/07/08 00:04:02;;;;;;;2.42;0.82;;;19.30;96.70;19.20;99862.00;;;;336393;28;83175;-89
2021/07/08 00:04:14;;;;;;;2.38;0.80;;;19.30;96.60;19.10;99870.00;;;;336053;28;90436;-89
2021/07/08 00:04:26;;;;;;;1.90;0.60;;;19.30;96.50;19.00;99872.00;;;;331272;29;83457;-88
2021/07/08 00:04:39;;;;;;;1.70;0.35;;;19.20;95.90;19.10;99869.00;;;;333400;29;90992;-88
2021/07/08 00:04:51;;;;;;;1.80;0.43;;;19.20;95.90;19.00;99878.00;;;;333818;29;82320;-88
2021/07/08 00:05:10;;;;;;;1.73;0.77;;;19.20;96.00;19.10;99875.00;;;;336093;28;88084;-89
2021/07/08 00:05:24;;;;;;;3.05;0.85;;;19.20;96.10;19.10;99876.00;;;;333747;29;83428;-89
2021/07/08 00:05:40;;;;;;;4.10;0.80;;;19.20;96.40;18.90;99873.00;;;;332250;29;89410;-89
2021/07/08 00:05:53;;;;;;;3.25;0.82;;;19.20;96.30;18.80;99870.00;;;;335001;28;83371;-88
2021/07/08 00:06:05;;;;;;;1.80;0.60;;;19.20;96.20;19.00;99875.00;;;;334838;29;89034;-88
2021/07/08 00:06:17;;;;;;;1.98;0.50;;;19.20;96.30;18.80;99876.00;;;;335179;29;82392;-88
2021/07/08 00:06:28;;;;;;;2.65;0.60;;;19.10;96.50;18.80;99872.00;;;;333360;29;90700;-88
2021/07/08 00:06:40;;;;;;;3.35;0.70;;;19.10;96.30;18.70;99869.00;;;;334775;29;83350;-89
2021/07/08 00:06:52;;;;;;;3.20;0.85;;;19.10;96.10;18.70;99874.00;;;;334718;29;89828;-88
2021/07/08 00:07:04;;;;;;;3.35;0.88;;;19.10;96.10;18.80;99872.00;;;;337766;28;83468;-88
2021/07/08 00:07:16;;;;;;;3.35;0.65;;;19.10;96.30;18.70;99873.00;;;;334715;29;89932;-87
2021/07/08 00:07:28;;;;;;;3.28;0.65;;;19.00;96.30;18.50;99876.00;;;;337691;28;83262;-90
2021/07/08 00:07:40;;;;;;;2.05;0.40;;;19.00;96.30;18.50;99874.00;;;;334689;29;89781;-88
2021/07/08 00:07:53;;;;;;;2.30;0.47;;;18.90;96.30;18.70;99870.00;;;;335162;29;83297;-89
2021/07/08 00:08:05;;;;;;;2.28;0.50;;;18.90;96.30;18.70;99872.00;;;;337400;28;89166;-89
2021/07/08 00:08:17;;;;;;;2.95;0.75;;;18.90;96.50;18.70;99870.00;;;;337755;28;83676;-88
2021/07/08 00:08:29;;;;;;;2.10;0.70;;;18.90;96.80;18.80;99876.00;;;;338652;28;90427;-89
2021/07/08 00:08:41;;;;;;;2.40;0.75;;;18.90;96.70;18.80;99868.00;;;;338842;28;83491;-88
2021/07/08 00:08:52;;;;;;;1.60;0.60;;;18.90;96.80;18.60;99875.00;;;;334470;28;89660;-88
2021/07/08 00:09:06;;;;;;;3.08;0.60;;;18.90;96.90;18.60;99879.00;;;;335425;28;83209;-89
2021/07/08 00:09:18;;;;;;;4.10;0.60;;;18.90;96.90;18.50;99874.00;;;;335885;28;89319;-89
2021/07/08 00:09:29;;;;;;;3.45;0.60;;;18.90;96.80;18.70;99876.00;;;;333737;29;83298;-89
2021/07/08 00:09:41;;;;;;;2.05;0.60;;;18.90;96.80;18.50;99874.00;;;;333467;29;89647;-89
2021/07/08 00:09:53;;;;;;;1.25;0.40;;;18.90;96.70;18.50;99880.00;;;;332519;29;83259;-89
2021/07/08 00:10:08;;;;;;;1.15;0.35;;;18.80;96.30;18.70;99877.00;;;;330839;29;90019;-89
2021/07/08 00:10:28;;;;;;;0.80;0.30;;;18.80;96.40;18.40;99878.00;;;;335095;29;83304;-88
2021/07/08 00:10:45;;;;;;;1.85;0.50;;;18.80;96.50;18.50;99875.00;;;;335903;28;89646;-88
2021/07/08 00:10:57;;;;;;;1.65;0.43;;;18.80;96.20;18.30;99875.00;;;;337753;28;82388;-88
2021/07/08 00:11:08;;;;;;;2.20;0.60;;;18.70;95.90;18.30;99879.00;;;;333543;29;87359;-88
2021/07/08 00:11:20;;;;;;;2.55;0.57;;;18.60;96.10;18.30;99872.00;;;;333714;29;83300;-89
2021/07/08 00:11:32;;;;;;;2.47;0.60;;;18.60;96.20;18.30;99878.00;;;;336054;28;89497;-89
2021/07/08 00:11:44;;;;;;;2.20;0.70;;;18.60;96.70;18.50;99879.00;;;;333714;29;83810;-88
2021/07/08 00:11:56;;;;;;;2.58;0.68;;;18.60;96.60;18.50;99874.00;;;;331587;29;91149;-89
2021/07/08 00:12:08;;;;;;;2.92;0.57;;;18.60;96.80;18.60;99878.00;;;;333757;29;83485;-88
2021/07/08 00:12:19;;;;;;;3.45;0.60;;;18.60;96.90;18.50;99879.00;;;;332117;29;89423;-88
2021/07/08 00:12:31;;;;;;;3.50;0.65;;;18.60;97.20;18.50;99885.00;;;;336342;28;84051;-89
2021/07/08 00:12:43;;;;;;;2.85;0.50;;;18.60;97.30;18.60;99882.00;;;;334273;29;89395;-89
2021/07/08 00:12:59;;;;;;;1.77;0.40;;;18.60;97.40;18.70;99882.00;;;;333636;29;84326;-88
2021/07/08 00:13:11;;;;;;;1.17;0.30;;;18.60;97.30;18.70;99880.00;;;;334851;29;89704;-89
2021/07/08 00:13:26;;;;;;;0.85;0.32;;;18.60;97.20;18.60;99882.00;;;;336482;28;82566;-89
2021/07/08 00:13:38;;;;;;;1.33;0.50;;;18.60;97.20;18.50;99878.00;;;;336085;28;89280;-88
2021/07/08 00:13:50;;;;;;;2.35;0.70;;;18.60;97.20;18.50;99881.00;;;;335099;29;83236;-88
2021/07/08 00:14:03;;;;;;;2.58;0.77;;;18.60;97.30;18.50;99882.00;;;;336028;28;89670;-89
2021/07/08 00:14:14;;;;;;;2.47;0.77;;;18.60;97.20;18.60;99888.00;;;;333749;29;83656;-88
2021/07/08 00:14:26;;;;;;;1.73;0.60;;;18.60;97.40;18.60;99879.00;;;;334836;29;88629;-87
2021/07/08 00:14:38;;;;;;;1.60;0.60;;;18.60;97.40;18.50;99881.00;;;;335032;29;83369;-89
2021/07/08 00:14:50;;;;;;;0.80;0.40;;;18.60;97.30;18.60;99878.00;;;;334017;29;92664;-88
2021/07/08 00:15:06;;;;;;;0.80;0.40;;;18.60;97.40;18.60;99877.00;;;;334916;29;83454;-89
2021/07/08 00:15:19;;;;;;;1.00;0.50;;;18.60;97.40;18.60;99877.00;;;;333301;29;89505;-89
2021/07/08 00:15:31;;;;;;;1.50;0.50;;;18.60;97.70;18.60;99876.00;;;;333538;29;82508;-88
2021/07/08 00:15:43;;;;;;;1.23;0.30;;;18.60;97.60;18.50;99877.00;;;;334708;29;89382;-89
2021/07/08 00:15:55;;;;;;;0.85;0.38;;;18.60;97.80;18.50;99877.00;;;;337669;28;83350;-88
2021/07/08 00:16:07;;;;;;;1.55;0.45;;;18.60;97.40;18.60;99875.00;;;;334753;29;88290;-89
2021/07/08 00:16:19;;;;;;;1.77;0.52;;;18.60;97.60;18.70;99875.00;;;;336498;28;82324;-88
2021/07/08 00:16:31;;;;;;;1.80;0.60;;;18.60;97.90;18.50;99877.00;;;;335960;28;91296;-89
2021/07/08 00:16:43;;;;;;;1.42;0.50;;;18.70;97.80;18.60;99873.00;;;;336323;28;83373;-88
2021/07/08 00:16:54;;;;;;;1.10;0.40;;;18.60;97.30;18.70;99882.00;;;;336080;28;90728;-89
2021/07/08 00:17:07;;;;;;;1.48;0.40;;;18.60;97.50;18.50;99876.00;;;;337797;28;83396;-88
2021/07/08 00:17:19;;;;;;;1.45;0.40;;;18.70;97.70;18.40;99873.00;;;;337242;28;89487;-89
2021/07/08 00:17:30;;;;;;;1.38;0.32;;;18.60;97.50;18.60;99884.00;;;;336348;28;83423;-88
2021/07/08 00:17:42;;;;;;;1.63;0.40;;;18.60;97.50;18.60;99871.00;;;;333538;29;88339;-89
2021/07/08 00:17:56;;;;;;;3.00;0.73;;;18.60;97.60;18.40;99860.00;;;;334593;29;83360;-89
2021/07/08 00:18:09;;;;;;;2.92;0.73;;;18.60;97.80;18.40;99880.00;;;;337240;28;89796;-89
2021/07/08 00:18:23;;;;;;;2.17;0.55;;;18.60;97.80;18.60;99875.00;;;;334885;29;83402;-89
2021/07/08 00:18:35;;;;;;;1.30;0.30;;;18.60;97.70;18.60;99873.00;;;;337383;28;89724;-89
2021/07/08 00:18:47;;;;;;;2.40;0.50;;;18.60;97.80;18.70;99872.00;;;;336381;28;83338;-89
2021/07/08 00:18:59;;;;;;;2.88;0.75;;;18.60;97.90;18.60;99870.00;;;;335822;28;90748;-89
2021/07/08 00:19:11;;;;;;;3.03;0.82;;;18.60;98.10;18.60;99875.00;;;;336502;28;83171;-89
2021/07/08 00:19:22;;;;;;;2.53;0.73;;;18.60;98.10;18.70;99872.00;;;;334429;29;88080;-88
2021/07/08 00:19:35;;;;;;;2.40;0.50;;;18.70;98.10;18.80;99864.00;;;;337674;28;83139;-89
2021/07/08 00:19:47;;;;;;;3.10;0.60;;;18.70;98.10;18.80;99870.00;;;;335984;28;91361;-89
2021/07/08 00:19:58;;;;;;;1.80;0.40;;;18.70;98.60;18.80;99859.00;;;;337696;28;83179;-89
2021/07/08 00:20:14;;;;;;;2.08;0.40;;;18.70;98.20;18.80;99869.00;;;;336148;28;89508;-89
2021/07/08 00:20:27;;;;;;;1.90;0.50;;;18.70;98.10;18.70;99866.00;;;;331271;29;83576;-88
2021/07/08 00:20:40;;;;;;;1.88;0.50;;;18.70;98.10;18.50;99876.00;;;;336102;28;87035;-89
2021/07/08 00:20:52;;;;;;;1.88;0.57;;;18.70;97.70;18.40;99872.00;;;;338612;28;82687;-89
2021/07/08 00:21:03;;;;;;;1.55;0.68;;;18.60;97.40;18.50;99863.00;;;;334916;28;89211;-89
2021/07/08 00:21:15;;;;;;;1.38;0.75;;;18.60;97.50;18.40;99871.00;;;;337769;28;83216;-89
2021/07/08 00:21:27;;;;;;;1.33;0.60;;;18.70;97.70;18.50;99869.00;;;;335833;28;90865;-88
2021/07/08 00:21:39;;;;;;;1.63;0.60;;;18.70;97.90;18.50;99867.00;;;;336451;28;82656;-90
2021/07/08 00:21:51;;;;;;;1.58;0.60;;;18.60;98.30;18.40;99864.00;;;;337008;28;89502;-89
2021/07/08 00:22:04;;;;;;;1.65;0.50;;;18.60;98.30;18.50;99874.00;;;;336474;28;83158;-90
2021/07/08 00:22:15;;;;;;;1.60;0.47;;;18.60;98.30;18.60;99874.00;;;;334677;29;91031;-89
2021/07/08 00:22:27;;;;;;;2.28;0.70;;;18.60;98.30;18.70;99866.00;;;;333802;29;83323;-88
2021/07/08 00:22:39;;;;;;;2.65;0.77;;;18.70;98.60;18.80;99874.00;;;;335946;28;89880;-89
2021/07/08 00:22:51;;;;;;;2.75;0.63;;;18.70;98.40;18.70;99874.00;;;;335158;29;82287;-89
2021/07/08 00:23:04;;;;;;;2.50;0.60;;;18.70;98.30;18.70;99876.00;;;;334749;29;90284;-89
2021/07/08 00:23:17;;;;;;;1.60;0.50;;;18.70;98.10;18.80;99866.00;;;;336420;28;83211;-89
2021/07/08 00:23:29;;;;;;;1.38;0.60;;;18.70;98.10;18.90;99879.00;;;;334795;29;88199;-89
2021/07/08 00:23:41;;;;;;;1.60;0.70;;;18.70;98.10;18.90;99874.00;;;;337777;28;83331;-90
2021/07/08 00:23:53;;;;;;;1.92;0.85;;;18.70;98.10;18.90;99873.00;;;;336173;28;89977;-89
2021/07/08 00:24:06;;;;;;;2.15;0.93;;;18.80;98.20;18.90;99867.00;;;;333998;29;84244;-90
2021/07/08 00:24:17;;;;;;;2.40;1.00;;;18.80;98.20;18.90;99869.00;;;;336065;28;89004;-89
2021/07/08 00:24:29;;;;;;;1.70;0.75;;;18.80;98.20;18.90;99868.00;;;;335159;29;83351;-89
2021/07/08 00:24:41;;;;;;;2.50;0.90;;;18.90;98.30;18.90;99865.00;;;;334634;29;88415;-89
2021/07/08 00:24:53;;;;;;;2.53;0.90;;;18.90;98.40;18.90;99869.00;;;;336322;28;83769;-89
2021/07/08 00:25:09;;;;;;;2.85;0.95;;;18.90;98.30;18.90;99872.00;;;;334644;29;90379;-88
2021/07/08 00:25:26;;;;;;;2.10;0.90;;;18.90;98.30;19.00;99870.00;;;;333809;29;83215;-88
2021/07/08 00:25:38;;;;;;;2.28;0.85;;;18.90;98.20;19.10;99875.00;;;;334732;29;89464;-89
2021/07/08 00:25:51;;;;;;;2.67;1.00;;;18.90;98.10;19.00;99871.00;;;;339152;28;82388;-88
2021/07/08 00:26:03;;;;;;;2.63;1.00;;;19.00;98.10;19.00;99866.00;;;;336170;28;88141;-88
2021/07/08 00:26:15;;;;;;;2.67;1.00;;;19.00;98.20;18.90;99871.00;;;;335165;29;83173;-89
2021/07/08 00:26:27;;;;;;;2.15;1.00;;;19.00;98.40;19.00;99878.00;;;;334791;29;88444;-88
2021/07/08 00:26:39;;;;;;;2.05;0.90;;;19.00;98.40;18.90;99882.00;;;;336451;28;83676;-89
2021/07/08 00:26:51;;;;;;;1.73;0.90;;;19.00;98.30;18.90;99876.00;;;;334803;28;89614;-88
2021/07/08 00:27:03;;;;;;;1.77;0.82;;;19.00;98.30;19.00;99873.00;;;;339094;28;82862;-89
2021/07/08 00:27:15;;;;;;;2.00;0.80;;;19.00;98.20;19.10;99876.00;;;;335938;28;90368;-89
2021/07/08 00:27:27;;;;;;;2.47;0.90;;;19.00;98.10;18.90;99879.00;;;;334869;28;83922;-89
2021/07/08 00:27:39;;;;;;;2.38;1.00;;;19.10;98.10;18.80;99878.00;;;;336173;28;88289;-89
2021/07/08 00:27:51;;;;;;;2.17;1.10;;;19.00;97.90;18.90;99883.00;;;;333727;29;83210;-89
2021/07/08 00:28:06;;;;;;;2.63;1.05;;;19.00;97.90;19.00;99877.00;;;;334734;29;89791;-88
2021/07/08 00:28:18;;;;;;;2.35;0.95;;;19.00;97.90;19.10;99885.00;;;;335126;29;83389;-89
2021/07/08 00:28:30;;;;;;;2.67;1.15;;;19.00;98.00;19.10;99882.00;;;;333445;29;89891;-89
2021/07/08 00:28:43;;;;;;;3.05;1.20;;;19.10;98.00;19.10;99884.00;;;;336358;28;83815;-89
2021/07/08 00:28:54;;;;;;;3.45;1.05;;;19.10;98.00;19.00;99881.00;;;;333466;29;89965;-89
2021/07/08 00:29:06;;;;;;;2.78;0.70;;;19.10;97.90;18.90;99884.00;;;;333866;29;83088;-88
2021/07/08 00:29:18;;;;;;;2.10;0.70;;;19.10;98.10;18.80;99881.00;;;;334589;29;90325;-89
2021/07/08 00:29:29;;;;;;;1.55;0.60;;;19.10;98.30;18.90;99876.00;;;;333819;29;83230;-89
2021/07/08 00:29:41;;;;;;;2.40;0.68;;;19.00;98.00;18.80;99883.00;;;;336199;28;89089;-89
2021/07/08 00:29:53;;;;;;;2.35;0.75;;;19.00;98.00;18.90;99877.00;;;;334794;29;83371;-88
2021/07/08 00:30:06;;;;;;;1.88;0.77;;;19.00;97.90;18.90;99885.00;;;;333357;29;91296;-88
2021/07/08 00:30:19;;;;;;;2.13;0.90;;;19.10;98.20;18.80;99885.00;;;;334993;29;83997;-89
2021/07/08 00:30:31;;;;;;;0.80;0.30;;;19.00;97.60;18.80;99883.00;;;;335011;29;87932;-89
2021/07/08 00:30:45;;;;;;;1.92;0.63;;;19.00;97.60;19.00;99880.00;;;;335011;29;83822;-89
2021/07/08 00:30:57;;;;;;;1.58;0.65;;;19.00;97.90;19.00;99883.00;;;;334618;29;89851;-89
2021/07/08 00:31:09;;;;;;;1.60;0.60;;;19.00;97.80;19.10;99889.00;;;;332664;29;83323;-89
2021/07/08 00:31:21;;;;;;;2.03;0.50;;;19.10;97.90;18.90;99884.00;;;;334520;29;90888;-88
2021/07/08 00:31:33;;;;;;;2.13;0.50;;;19.10;97.90;18.90;99883.00;;;;334930;29;82542;-89
2021/07/08 00:31:45;;;;;;;2.53;0.77;;;19.10;97.90;18.80;99882.00;;;;334782;29;88817;-89
2021/07/08 00:31:57;;;;;;;3.63;0.90;;;19.10;98.00;19.00;99885.00;;;;336423;28;82305;-89
2021/07/08 00:32:09;;;;;;;3.78;0.80;;;19.10;98.00;19.00;99882.00;;;;336081;28;89595;-89
2021/07/08 00:32:20;;;;;;;3.22;0.70;;;19.10;98.00;19.00;99887.00;;;;336433;28;83358;-89
2021/07/08 00:32:32;;;;;;;2.47;0.70;;;19.10;98.10;18.90;99882.00;;;;337326;28;89554;-89
2021/07/08 00:32:44;;;;;;;2.55;0.80;;;19.10;98.00;19.00;99882.00;;;;337721;28;82246;-89
2021/07/08 00:32:56;;;;;;;3.22;1.02;;;19.10;97.90;19.00;99886.00;;;;337275;28;89310;-88
2021/07/08 00:33:09;;;;;;;3.80;1.20;;;19.10;98.00;19.10;99882.00;;;;339110;28;82343;-89
2021/07/08 00:33:21;;;;;;;3.60;1.05;;;19.10;98.00;19.20;99881.00;;;;337165;28;90880;-89
2021/07/08 00:33:33;;;;;;;1.90;0.80;;;19.10;98.10;19.20;99877.00;;;;338875;28;83954;-88
2021/07/08 00:33:46;;;;;;;2.60;0.93;;;19.10;98.20;19.30;99881.00;;;;337312;28;88356;-90
2021/07/08 00:34:01;;;;;;;3.00;1.05;;;19.10;98.20;19.30;99886.00;;;;334968;29;83673;-89
2021/07/08 00:34:13;;;;;;;2.50;0.90;;;19.10;98.20;19.30;99878.00;;;;334775;29;89782;-90
2021/07/08 00:34:25;;;;;;;2.70;0.90;;;19.10;98.20;19.30;99882.00;;;;336454;28;83261;-89
2021/07/08 00:34:36;;;;;;;2.42;0.90;;;19.20;98.30;19.30;99882.00;;;;335970;28;91283;-89
2021/07/08 00:34:48;;;;;;;2.58;0.80;;;19.20;98.20;19.30;99883.00;;;;333927;29;82173;-90
2021/07/08 00:35:00;;;;;;;2.70;0.80;;;19.20;98.20;19.30;99883.00;;;;333438;29;89476;-90
2021/07/08 00:35:12;;;;;;;2.80;0.90;;;19.20;98.20;19.30;99881.00;;;;337771;28;83231;-90
2021/07/08 00:35:23;;;;;;;2.30;1.00;;;19.20;98.10;19.30;99883.00;;;;336076;28;90664;-90
2021/07/08 00:35:36;;;;;;;3.40;1.02;;;19.20;97.90;19.30;99887.00;;;;336379;28;83075;-90
2021/07/08 00:35:48;;;;;;;2.60;1.00;;;19.20;97.80;19.20;99883.00;;;;337272;28;88202;-90
2021/07/08 00:36:00;;;;;;;2.35;0.90;;;19.20;97.90;19.30;99881.00;;;;336110;28;82468;-89
2021/07/08 00:36:12;;;;;;;2.40;0.90;;;19.20;98.10;19.40;99890.00;;;;336051;28;89158;-90
2021/07/08 00:36:24;;;;;;;2.75;1.02;;;19.20;98.20;19.40;99891.00;;;;336336;28;82471;-90
2021/07/08 00:36:36;;;;;;;2.33;0.93;;;19.20;98.30;19.40;99887.00;;;;337342;28;89277;-90
2021/07/08 00:36:47;;;;;;;1.88;0.73;;;19.20;98.20;19.40;99891.00;;;;336475;28;82450;-89
2021/07/08 00:36:59;;;;;;;2.38;0.75;;;19.20;98.10;19.40;99896.00;;;;334715;29;89668;-89
2021/07/08 00:37:11;;;;;;;3.13;0.80;;;19.20;98.10;19.40;99898.00;;;;335207;29;83306;-90
2021/07/08 00:37:23;;;;;;;3.03;0.90;;;19.20;98.10;19.30;99888.00;;;;334620;29;90960;-89
2021/07/08 00:37:34;;;;;;;2.33;0.73;;;19.30;98.00;19.40;99886.00;;;;334074;29;82282;-89
2021/07/08 00:37:46;;;;;;;1.60;0.70;;;19.30;98.10;19.40;99890.00;;;;332646;29;89318;-88
2021/07/08 00:37:58;;;;;;;1.77;0.70;;;19.20;98.10;19.30;99889.00;;;;335736;29;83289;-89
2021/07/08 00:38:10;;;;;;;1.95;0.68;;;19.30;98.00;19.30;99890.00;;;;332411;29;89949;-89
2021/07/08 00:38:22;;;;;;;1.83;0.60;;;19.30;98.20;19.30;99893.00;;;;334604;29;82452;-90
2021/07/08 00:38:33;;;;;;;2.38;0.73;;;19.30;97.90;19.30;99887.00;;;;335845;29;90112;-89
2021/07/08 00:38:45;;;;;;;3.50;0.80;;;19.30;97.90;19.30;99891.00;;;;335927;29;82227;-89
2021/07/08 00:38:57;;;;;;;3.05;0.63;;;19.30;97.90;19.30;99893.00;;;;332271;29;89785;-89
2021/07/08 00:39:09;;;;;;;1.75;0.55;;;19.30;97.80;19.40;99897.00;;;;336992;28;83737;-89
2021/07/08 00:39:20;;;;;;;2.80;0.90;;;19.30;97.90;19.40;99892.00;;;;335031;29;89458;-89
2021/07/08 00:39:32;;;;;;;2.95;0.85;;;19.30;98.00;19.30;99891.00;;;;334257;29;82404;-89
2021/07/08 00:39:44;;;;;;;1.67;0.52;;;19.30;98.00;19.40;99892.00;;;;332480;29;89677;-89
2021/07/08 00:39:56;;;;;;;1.42;0.47;;;19.30;97.80;19.40;99894.00;;;;333945;29;84333;-88
2021/07/08 00:40:10;;;;;;;1.95;0.38;;;19.30;97.70;19.40;99887.00;;;;335265;29;92527;-89
2021/07/08 00:40:22;;;;;;;1.83;0.30;;;19.40;97.70;19.30;99890.00;;;;335734;29;83316;-89
2021/07/08 00:40:34;;;;;;;1.55;0.40;;;19.30;97.60;19.20;99892.00;;;;339219;28;88548;-89
2021/07/08 00:40:45;;;;;;;1.33;0.40;;;19.30;97.80;19.20;99890.00;;;;334170;29;82442;-89
2021/07/08 00:40:57;;;;;;;1.13;0.40;;;19.30;97.70;19.20;99893.00;;;;334683;29;89577;-88
2021/07/08 00:41:09;;;;;;;1.05;0.40;;;19.30;97.70;19.10;99894.00;;;;334114;29;83187;-89
2021/07/08 00:41:21;;;;;;;1.00;0.30;;;19.30;97.50;19.20;99888.00;;;;332382;29;91027;-89
2021/07/08 00:41:33;;;;;;;1.67;0.28;;;19.30;97.60;19.30;99893.00;;;;334381;29;83111;-89
2021/07/08 00:41:45;;;;;;;2.33;0.40;;;19.30;97.30;19.20;99891.00;;;;333893;29;89794;-89
2021/07/08 00:41:56;;;;;;;2.03;0.30;;;19.30;97.20;19.30;99892.00;;;;337254;28;83731;-88
2021/07/08 00:42:08;;;;;;;0.95;0.30;;;19.30;97.10;19.20;99894.00;;;;336634;28;89748;-89
2021/07/08 00:42:20;;;;;;;0.50;0.20;;;19.30;97.20;19.20;99893.00;;;;336619;28;83132;-89
2021/07/08 00:42:32;;;;;;;1.00;0.20;;;19.30;97.20;19.30;99887.00;;;;335258;29;91522;-88
2021/07/08 00:42:44;;;;;;;1.88;0.20;;;19.30;97.10;19.20;99892.00;;;;335528;29;82560;-88
2021/07/08 00:42:57;;;;;;;2.28;0.20;;;19.30;97.20;19.10;99888.00;;;;335119;29;89780;-89
2021/07/08 00:43:08;;;;;;;2.75;0.30;;;19.30;97.40;19.10;99888.00;;;;335582;29;83168;-89
2021/07/08 00:43:20;;;;;;;1.95;0.30;;;19.30;97.30;19.10;99882.00;;;;335185;29;90777;-89
2021/07/08 00:43:32;;;;;;;1.50;0.30;;;19.30;97.30;19.20;99880.00;;;;335410;29;83001;-89
2021/07/08 00:43:45;;;;;;;1.70;0.30;;;19.30;97.30;19.30;99888.00;;;;335105;29;89712;-89
2021/07/08 00:43:57;;;;;;;1.42;0.22;;;19.30;97.40;19.20;99887.00;;;;336567;28;82210;-89
2021/07/08 00:44:09;;;;;;;0.90;0.30;;;19.30;97.50;19.20;99888.00;;;;333383;29;89474;-89
2021/07/08 00:44:20;;;;;;;1.10;0.30;;;19.30;97.50;19.00;99892.00;;;;336180;29;82737;-89
2021/07/08 00:44:32;;;;;;;1.13;0.30;;;19.30;97.60;19.20;99883.00;;;;336922;28;88328;-90
2021/07/08 00:44:45;;;;;;;1.02;0.20;;;19.30;97.60;19.20;99882.00;;;;332823;29;83271;-89
2021/07/08 00:44:56;;;;;;;0.70;0.20;;;19.30;97.40;19.10;99884.00;;;;333383;29;89084;-87
2021/07/08 00:45:11;;;;;;;0.80;0.20;;;19.30;97.40;19.00;99885.00;;;;332722;29;83766;-89
2021/07/08 00:45:23;;;;;;;0.60;0.28;;;19.30;97.40;19.20;99889.00;;;;333098;29;92006;-90
2021/07/08 00:45:35;;;;;;;0.80;0.28;;;19.30;97.50;19.00;99888.00;;;;334412;29;83006;-89
2021/07/08 00:45:47;;;;;;;1.00;0.22;;;19.30;97.70;19.00;99885.00;;;;336516;28;88635;-88
2021/07/08 00:45:59;;;;;;;0.80;0.20;;;19.20;97.50;18.90;99877.00;;;;337866;28;82485;-90
2021/07/08 00:46:11;;;;;;;0.73;0.20;;;19.20;97.70;18.80;99883.00;;;;335108;29;88218;-90
2021/07/08 00:46:23;;;;;;;0.40;0.20;;;19.20;97.60;18.90;99885.00;;;;336862;28;83053;-89
2021/07/08 00:46:34;;;;;;;0.40;0.20;;;19.20;97.40;18.90;99880.00;;;;335025;29;89565;-89
2021/07/08 00:46:46;;;;;;;0.77;0.20;;;19.20;97.30;19.00;99878.00;;;;335358;29;83657;-89
2021/07/08 00:46:58;;;;;;;0.73;0.13;;;19.20;97.40;19.10;99878.00;;;;336371;28;90160;-90
2021/07/08 00:47:10;;;;;;;1.58;0.20;;;19.20;97.30;19.10;99878.00;;;;335401;29;83266;-90
2021/07/08 00:47:21;;;;;;;2.00;0.20;;;19.20;97.20;18.80;99878.00;;;;334301;29;91717;-89
2021/07/08 00:47:33;;;;;;;1.33;0.28;;;19.20;97.20;19.00;99878.00;;;;336168;28;82349;-89
2021/07/08 00:47:45;;;;;;;1.30;0.20;;;19.10;97.20;19.10;99875.00;;;;334658;29;89348;-89
2021/07/08 00:47:57;;;;;;;0.82;0.20;;;19.10;97.30;19.10;99875.00;;;;332612;29;83432;-89
2021/07/08 00:48:09;;;;;;;0.50;0.20;;;19.10;97.30;19.00;99882.00;;;;334258;29;88480;-90
2021/07/08 00:48:20;;;;;;;0.90;0.20;;;19.10;97.40;19.00;99882.00;;;;336343;28;83516;-89
2021/07/08 00:48:32;;;;;;;1.10;0.20;;;19.10;97.30;19.10;99877.00;;;;334774;29;88458;-90
2021/07/08 00:48:45;;;;;;;0.88;0.20;;;19.10;97.40;19.00;99872.00;;;;335015;29;82344;-88
2021/07/08 00:48:56;;;;;;;0.50;0.20;;;19.20;97.60;18.80;99870.00;;;;334744;29;88557;-90
2021/07/08 00:49:08;;;;;;;2.20;0.28;;;19.10;97.20;18.80;99878.00;;;;336467;28;82148;-90
2021/07/08 00:49:20;;;;;;;2.22;0.20;;;19.10;97.10;18.80;99871.00;;;;332038;29;90469;-89
2021/07/08 00:49:32;;;;;;;1.85;0.20;;;19.10;97.40;18.70;99877.00;;;;335053;29;83318;-89
2021/07/08 00:49:43;;;;;;;0.85;0.10;;;19.10;97.10;18.70;99873.00;;;;332181;29;88209;-89
2021/07/08 00:49:55;;;;;;;0.63;0.20;;;19.10;96.90;18.80;99878.00;;;;333830;29;82476;-90
2021/07/08 00:50:09;;;;;;;1.00;0.17;;;19.00;97.00;18.70;99876.00;;;;336005;28;88510;-91
2021/07/08 00:50:28;;;;;;;0.80;0.10;;;19.00;97.30;18.80;99868.00;;;;335111;29;83539;-89
2021/07/08 00:50:42;;;;;;;0.22;0.10;;;19.00;97.60;18.70;99880.00;;;;338582;28;88055;-89
2021/07/08 00:50:54;;;;;;;0.32;0.10;;;19.00;97.50;18.80;99864.00;;;;336124;28;84008;-89
2021/07/08 00:51:06;;;;;;;0.68;0.10;;;18.90;97.60;18.90;99870.00;;;;335395;28;89075;-90
2021/07/08 00:51:17;;;;;;;0.90;0.20;;;18.90;97.60;19.00;99871.00;;;;336096;28;82474;-88
2021/07/08 00:51:29;;;;;;;0.57;0.20;;;18.90;97.70;19.00;99868.00;;;;335982;28;90483;-89
2021/07/08 00:51:41;;;;;;;0.45;0.13;;;18.90;97.70;18.90;99872.00;;;;336368;28;83331;-88
2021/07/08 00:51:53;;;;;;;0.70;0.20;;;19.00;97.80;18.80;99872.00;;;;335925;28;89703;-89
2021/07/08 00:52:05;;;;;;;0.80;0.20;;;18.90;97.80;18.80;99873.00;;;;333660;29;83253;-90
2021/07/08 00:52:17;;;;;;;0.73;0.20;;;18.90;97.60;18.80;99872.00;;;;334672;29;88433;-88
2021/07/08 00:52:29;;;;;;;0.60;0.20;;;18.90;97.50;18.80;99865.00;;;;332581;29;83211;-90
2021/07/08 00:52:41;;;;;;;0.52;0.10;;;18.90;97.50;18.90;99865.00;;;;333300;29;89529;-89
2021/07/08 00:52:53;;;;;;;0.57;0.20;;;18.90;97.50;18.80;99873.00;;;;333787;29;83451;-90
2021/07/08 00:53:05;;;;;;;0.60;0.20;;;18.90;97.50;18.80;99867.00;;;;334737;29;88899;-90
2021/07/08 00:53:19;;;;;;;0.45;0.20;;;18.90;97.50;18.90;99868.00;;;;336118;28;83942;-88
2021/07/08 00:53:31;;;;;;;0.30;0.10;;;18.90;97.70;18.90;99869.00;;;;337282;28;90519;-89
2021/07/08 00:53:43;;;;;;;0.47;0.10;;;18.90;97.90;19.00;99864.00;;;;336271;28;83285;-89
2021/07/08 00:53:54;;;;;;;0.50;0.20;;;18.90;97.60;18.80;99865.00;;;;334164;29;88822;-88
2021/07/08 00:54:07;;;;;;;0.50;0.20;;;18.90;97.60;18.70;99872.00;;;;336177;28;86069;-88
2021/07/08 00:54:19;;;;;;;0.70;0.20;;;18.90;97.70;18.70;99874.00;;;;337341;28;88994;-89
2021/07/08 00:54:31;;;;;;;0.98;0.20;;;18.90;97.80;18.60;99878.00;;;;333832;29;83236;-89
2021/07/08 00:54:43;;;;;;;0.80;0.20;;;18.90;97.80;18.80;99865.00;;;;334658;29;88968;-88
2021/07/08 00:54:54;;;;;;;0.50;0.20;;;18.90;97.80;18.80;99874.00;;;;337611;28;83197;-89
2021/07/08 00:55:07;;;;;;;4.00;0.40;;;18.90;97.80;18.90;99877.00;;;;334775;29;89648;-88
2021/07/08 00:55:19;;;;;;;4.43;0.40;;;18.90;97.70;18.90;99869.00;;;;336270;28;83354;-89
2021/07/08 00:55:31;;;;;;;2.83;0.20;;;18.90;97.60;18.90;99871.00;;;;335859;28;89427;-88